Time;durP1;ratioP1;P1;durP2;ratioP2;P2;SDS_P1;SDS_P2;PMS_P1;PMS_P2;Temp;Humidity;BMP_temperature;BMP_pressure;BME280_temperature;BME280_humidity;BME280_pressure;Samples;Min_cycle;Max_cycle;Signal;HPM_P1;HPM_P2
2022/10/21 00:00:40;;;;;;;27.63;11.23;;;11.40;99.90;;;;;;5070145;28;20056;-68
2022/10/21 00:03:05;;;;;;;28.50;10.60;;;11.40;99.90;;;;;;5050442;28;20398;-70
2022/10/21 00:05:31;;;;;;;28.80;11.77;;;11.40;99.90;;;;;;5052223;28;20041;-68
2022/10/21 00:07:57;;;;;;;23.98;11.80;;;11.40;99.90;;;;;;5050925;28;20052;-72
2022/10/21 00:10:23;;;;;;;23.80;10.02;;;11.30;99.90;;;;;;5050873;28;20087;-68
2022/10/21 00:12:48;;;;;;;27.70;11.57;;;11.30;99.90;;;;;;5067188;28;20053;-68
2022/10/21 00:15:14;;;;;;;25.90;12.13;;;11.30;99.90;;;;;;5070251;28;20384;-68
2022/10/21 00:17:42;;;;;;;22.83;10.60;;;11.30;99.90;;;;;;5071895;28;20080;-68
2022/10/21 00:20:10;;;;;;;25.40;11.18;;;11.30;99.90;;;;;;5069626;28;20052;-68
2022/10/21 00:22:36;;;;;;;23.05;11.25;;;11.20;99.90;;;;;;5070974;28;20052;-70
2022/10/21 00:25:02;;;;;;;;;;;11.30;99.90;;;;;;5070872;28;20048;-73
2022/10/21 00:27:28;;;;;;;28.70;11.85;;;11.20;99.90;;;;;;5070714;28;19948;-68
2022/10/21 00:29:53;;;;;;;27.48;11.98;;;11.20;99.90;;;;;;5071180;28;20533;-69
2022/10/21 00:32:19;;;;;;;31.23;12.57;;;11.20;99.90;;;;;;5050848;28;20497;-69
2022/10/21 00:34:45;;;;;;;23.35;11.13;;;11.10;99.90;;;;;;5067109;28;20071;-68
2022/10/21 00:37:12;;;;;;;25.55;10.75;;;11.20;99.90;;;;;;5070185;28;20060;-74
2022/10/21 00:39:38;;;;;;;28.42;11.00;;;11.20;99.90;;;;;;5065300;28;20049;-68
2022/10/21 00:42:14;;;;;;;31.13;12.27;;;11.20;99.90;;;;;;5051020;28;20056;-74
2022/10/21 00:44:40;;;;;;;25.63;11.05;;;11.20;99.90;;;;;;5051683;28;20509;-69
2022/10/21 00:47:15;;;;;;;;;;;11.20;99.90;;;;;;5050602;28;20451;-74
2022/10/21 00:49:54;;;;;;;28.80;10.35;;;11.20;99.90;;;;;;5051121;28;19924;-68
2022/10/21 00:52:22;;;;;;;33.80;11.27;;;11.20;99.90;;;;;;5065232;28;20551;-69
2022/10/21 00:54:51;;;;;;;30.35;11.85;;;11.20;99.90;;;;;;5070091;28;20103;-68
2022/10/21 00:57:19;;;;;;;28.77;10.57;;;11.20;99.90;;;;;;5067896;28;20052;-68
2022/10/21 00:59:55;;;;;;;24.00;10.55;;;11.20;99.90;;;;;;5056284;28;20493;-69
2022/10/21 01:02:21;;;;;;;27.43;11.93;;;11.20;99.90;;;;;;5070511;28;20438;-70
2022/10/21 01:04:50;;;;;;;;;;;11.20;99.90;;;;;;5071253;28;20361;-71
2022/10/21 01:07:16;;;;;;;24.13;10.85;;;11.20;99.90;;;;;;5069642;28;20407;-68
2022/10/21 01:09:42;;;;;;;28.92;11.48;;;11.20;99.90;;;;;;5069713;28;20041;-69
2022/10/21 01:12:20;;;;;;;27.27;10.80;;;11.30;99.90;;;;;;5070010;28;20078;-74
2022/10/21 01:15:02;;;;;;;27.58;11.60;;;11.20;99.90;;;;;;5071004;28;20055;-71
2022/10/21 01:18:04;;;;;;;24.30;10.77;;;11.20;99.90;;;;;;5070058;28;20135;-68
2022/10/21 01:20:47;;;;;;;24.67;10.65;;;11.30;99.90;;;;;;5070422;28;20040;-68
2022/10/21 01:23:33;;;;;;;27.52;11.88;;;11.30;99.90;;;;;;5068083;28;20044;-69
2022/10/21 01:26:20;;;;;;;30.63;11.30;;;11.30;99.90;;;;;;5070433;28;20044;-70
2022/10/21 01:29:04;;;;;;;;;;;11.30;99.90;;;;;;5071132;28;20056;-69
2022/10/21 01:31:48;;;;;;;27.65;10.82;;;11.30;99.90;;;;;;5070302;28;19976;-70
2022/10/21 01:34:46;;;;;;;26.42;10.65;;;11.30;99.90;;;;;;5068746;28;20046;-69
2022/10/21 01:37:26;;;;;;;23.30;10.18;;;11.30;99.90;;;;;;5077369;28;20052;-74
2022/10/21 01:40:17;;;;;;;23.83;10.07;;;11.30;99.90;;;;;;5049529;28;20048;-68
2022/10/21 01:42:54;;;;;;;26.08;11.02;;;11.30;99.90;;;;;;5041379;28;20049;-69
2022/10/21 01:45:26;;;;;;;25.77;10.27;;;11.40;99.90;;;;;;5052190;28;20055;-68
2022/10/21 01:48:04;;;;;;;21.70;11.32;;;11.30;99.90;;;;;;5050291;28;20083;-70
2022/10/21 01:50:35;;;;;;;26.50;11.10;;;11.40;99.90;;;;;;5049761;28;20178;-68
2022/10/21 01:53:08;;;;;;;23.65;10.32;;;11.40;99.90;;;;;;5049088;28;20041;-73
2022/10/21 01:55:35;;;;;;;26.45;10.45;;;11.40;99.90;;;;;;5057555;28;20052;-68
2022/10/21 01:58:13;;;;;;;28.92;12.20;;;11.40;99.90;;;;;;5070355;28;20126;-70
2022/10/21 02:00:40;;;;;;;24.38;9.75;;;11.40;99.90;;;;;;5063685;28;20532;-70
2022/10/21 02:03:09;;;;;;;29.30;10.77;;;11.40;99.90;;;;;;5049817;28;20600;-73
2022/10/21 02:05:35;;;;;;;25.70;11.43;;;11.50;99.90;;;;;;5050756;28;20049;-68
2022/10/21 02:08:01;;;;;;;;;;;11.50;99.90;;;;;;5060988;28;20048;-72
2022/10/21 02:10:33;;;;;;;22.95;10.43;;;11.50;99.90;;;;;;5068916;28;19926;-68
2022/10/21 02:13:02;;;;;;;24.80;9.55;;;11.50;99.90;;;;;;5069796;28;20060;-69
2022/10/21 02:15:29;;;;;;;23.90;11.13;;;11.60;99.90;;;;;;5069585;28;20102;-70
2022/10/21 02:18:22;;;;;;;25.42;10.30;;;11.60;99.90;;;;;;5050449;28;20055;-68
2022/10/21 02:20:54;;;;;;;21.90;10.20;;;11.60;99.90;;;;;;5047282;28;20060;-70
2022/10/21 02:23:25;;;;;;;25.23;10.23;;;11.60;99.90;;;;;;5067654;28;20048;-70
2022/10/21 02:25:51;;;;;;;23.55;10.18;;;11.60;99.90;;;;;;5070070;28;20041;-69
2022/10/21 02:28:18;;;;;;;22.35;10.02;;;11.60;99.90;;;;;;5069492;28;20048;-69
2022/10/21 02:31:07;;;;;;;25.80;10.38;;;11.70;99.90;;;;;;5070144;28;20060;-68
2022/10/21 02:34:00;;;;;;;22.83;9.48;;;11.70;99.90;;;;;;5068605;28;20622;-71
2022/10/21 02:36:33;;;;;;;26.15;10.43;;;11.70;99.90;;;;;;5069557;28;20055;-70
2022/10/21 02:39:11;;;;;;;28.40;10.73;;;11.70;99.90;;;;;;5067956;28;20040;-70
2022/10/21 02:41:39;;;;;;;29.40;10.40;;;11.70;99.90;;;;;;5050032;28;20103;-69
2022/10/21 02:44:06;;;;;;;26.75;10.50;;;11.70;99.90;;;;;;5049956;28;20503;-69
2022/10/21 02:46:37;;;;;;;25.73;10.88;;;11.80;99.90;;;;;;5063014;28;20048;-69
2022/10/21 02:49:03;;;;;;;25.20;10.73;;;11.80;99.90;;;;;;5050016;28;20057;-68
2022/10/21 02:51:28;;;;;;;;;;;11.80;99.90;;;;;;5065316;28;20060;-68
2022/10/21 02:53:55;;;;;;;25.92;10.68;;;11.80;99.90;;;;;;5056953;28;19924;-69
2022/10/21 02:56:21;;;;;;;24.23;10.15;;;11.80;99.90;;;;;;5069123;28;20052;-69
2022/10/21 02:58:46;;;;;;;30.48;10.57;;;11.80;99.90;;;;;;5069905;28;20463;-69
2022/10/21 03:01:12;;;;;;;26.33;10.63;;;11.80;99.90;;;;;;5069548;28;20051;-73
2022/10/21 03:03:38;;;;;;;23.63;9.73;;;11.90;99.90;;;;;;5069161;28;20052;-68
2022/10/21 03:06:03;;;;;;;30.60;10.68;;;11.90;99.90;;;;;;5068521;28;20049;-68
2022/10/21 03:08:29;;;;;;;25.98;10.73;;;11.90;99.90;;;;;;5066908;28;20052;-68
2022/10/21 03:10:55;;;;;;;32.90;11.18;;;11.90;99.90;;;;;;5070633;28;20044;-68
2022/10/21 03:13:21;;;;;;;26.08;10.73;;;12.00;99.90;;;;;;5072672;28;20139;-69
2022/10/21 03:15:49;;;;;;;29.83;10.48;;;11.90;99.90;;;;;;5060238;28;20498;-69
2022/10/21 03:18:15;;;;;;;30.27;10.90;;;12.00;99.90;;;;;;5051030;28;20045;-73
2022/10/21 03:20:41;;;;;;;27.38;10.82;;;11.90;99.90;;;;;;5053165;28;20045;-69
2022/10/21 03:23:06;;;;;;;27.13;11.02;;;12.00;99.90;;;;;;5051493;28;20041;-73
2022/10/21 03:25:32;;;;;;;25.13;10.27;;;12.00;99.90;;;;;;5052100;28;20053;-68
2022/10/21 03:27:58;;;;;;;28.83;10.35;;;12.00;99.90;;;;;;5051745;28;20406;-69
2022/10/21 03:30:24;;;;;;;28.88;9.82;;;12.00;99.90;;;;;;5052385;28;20059;-69
2022/10/21 03:32:49;;;;;;;31.92;10.68;;;11.90;99.90;;;;;;5052746;28;20136;-68
2022/10/21 03:35:15;;;;;;;29.90;10.98;;;11.90;99.90;;;;;;5068869;28;20056;-73
2022/10/21 03:37:41;;;;;;;25.35;10.98;;;11.90;99.90;;;;;;5071868;28;20062;-68
2022/10/21 03:40:07;;;;;;;27.13;10.50;;;11.80;99.90;;;;;;5057784;28;20487;-68
2022/10/21 03:42:33;;;;;;;24.00;10.32;;;11.80;99.90;;;;;;5052313;28;20561;-70
2022/10/21 03:44:58;;;;;;;25.27;10.23;;;11.80;99.90;;;;;;5058381;28;20047;-69
2022/10/21 03:47:24;;;;;;;27.70;10.45;;;11.70;99.90;;;;;;5071919;28;20052;-69
2022/10/21 03:49:50;;;;;;;25.45;10.70;;;11.80;99.90;;;;;;5071236;28;20049;-69
2022/10/21 03:52:15;;;;;;;30.60;10.68;;;11.70;99.90;;;;;;5062227;28;20048;-73
2022/10/21 03:54:41;;;;;;;28.90;9.35;;;11.70;99.90;;;;;;5066570;28;20375;-69
2022/10/21 03:57:06;;;;;;;31.90;10.82;;;11.70;99.90;;;;;;5055521;28;20102;-68
2022/10/21 03:59:32;;;;;;;31.17;10.40;;;11.60;99.90;;;;;;5051870;28;20044;-68
2022/10/21 04:01:58;;;;;;;23.75;10.30;;;11.70;99.90;;;;;;5052434;28;20051;-70
2022/10/21 04:04:24;;;;;;;29.08;11.63;;;11.70;99.90;;;;;;5049918;28;20072;-69
2022/10/21 04:06:49;;;;;;;29.90;10.20;;;11.70;99.90;;;;;;5052549;28;20048;-69
2022/10/21 04:09:15;;;;;;;29.83;11.32;;;11.70;99.90;;;;;;5048020;28;20406;-73
2022/10/21 04:11:41;;;;;;;27.30;10.48;;;11.70;99.90;;;;;;5051643;28;20037;-69
2022/10/21 04:14:06;;;;;;;25.60;10.18;;;11.80;99.90;;;;;;5052108;28;20107;-69
2022/10/21 04:16:33;;;;;;;22.48;9.82;;;11.70;99.90;;;;;;5053972;28;20056;-71
2022/10/21 04:18:58;;;;;;;;;;;11.70;99.90;;;;;;5051005;28;20056;-73
2022/10/21 04:21:24;;;;;;;24.77;10.43;;;11.70;99.90;;;;;;5050346;28;19928;-71
2022/10/21 04:23:50;;;;;;;21.35;9.15;;;11.70;99.90;;;;;;5050232;28;20037;-70
2022/10/21 04:26:16;;;;;;;23.05;9.50;;;11.70;99.90;;;;;;5050544;28;20049;-73
2022/10/21 04:28:41;;;;;;;29.00;9.80;;;11.60;99.90;;;;;;5062654;28;20041;-68
2022/10/21 04:31:07;;;;;;;24.63;10.30;;;11.60;99.90;;;;;;5071933;28;20111;-68
2022/10/21 04:33:33;;;;;;;26.90;9.80;;;11.60;99.90;;;;;;5070562;28;20067;-70
2022/10/21 04:35:58;;;;;;;26.60;9.60;;;11.50;99.90;;;;;;5071548;28;20055;-69
2022/10/21 04:38:25;;;;;;;23.65;9.23;;;11.60;99.90;;;;;;5067195;28;20125;-68
2022/10/21 04:40:59;;;;;;;22.40;9.38;;;11.50;99.90;;;;;;5057817;28;20076;-68
2022/10/21 04:43:26;;;;;;;27.85;9.30;;;11.50;99.90;;;;;;5051108;28;20124;-70
2022/10/21 04:45:52;;;;;;;23.80;10.38;;;11.50;99.90;;;;;;5051593;28;20041;-69
2022/10/21 04:48:17;;;;;;;;;;;11.40;99.90;;;;;;5051420;28;20056;-73
2022/10/21 04:50:43;;;;;;;22.13;9.23;;;11.40;99.90;;;;;;5065850;28;19925;-68
2022/10/21 04:53:09;;;;;;;19.70;8.60;;;11.40;99.90;;;;;;5064870;28;20475;-71
2022/10/21 04:55:39;;;;;;;25.60;9.23;;;11.40;99.90;;;;;;5066147;28;20158;-69
2022/10/21 04:58:05;;;;;;;26.75;9.75;;;11.40;99.90;;;;;;5069897;28;20082;-69
2022/10/21 05:00:31;;;;;;;21.40;9.40;;;11.30;99.90;;;;;;5067182;28;20056;-71
2022/10/21 05:02:57;;;;;;;28.52;9.90;;;11.30;99.90;;;;;;5070658;28;20128;-71
2022/10/21 05:05:22;;;;;;;23.50;10.00;;;11.30;99.90;;;;;;5070038;28;20181;-73
2022/10/21 05:07:48;;;;;;;30.17;9.50;;;11.30;99.90;;;;;;5069007;28;20049;-68
2022/10/21 05:10:14;;;;;;;21.73;9.40;;;11.30;99.90;;;;;;5069253;28;20051;-69
2022/10/21 05:12:39;;;;;;;24.10;10.00;;;11.20;99.90;;;;;;5070305;28;20068;-70
2022/10/21 05:15:05;;;;;;;20.73;8.55;;;11.20;99.90;;;;;;5070587;28;20079;-69
2022/10/21 05:17:31;;;;;;;28.52;10.45;;;11.20;99.90;;;;;;5069061;28;20490;-68
2022/10/21 05:19:56;;;;;;;24.10;9.70;;;11.20;99.90;;;;;;5070747;28;20049;-70
2022/10/21 05:22:22;;;;;;;22.80;9.75;;;11.20;99.90;;;;;;5069565;28;20612;-74
2022/10/21 05:24:48;;;;;;;21.67;9.75;;;11.20;99.90;;;;;;5064583;28;20478;-68
2022/10/21 05:27:13;;;;;;;23.88;9.80;;;11.10;99.90;;;;;;5070802;28;20088;-68
2022/10/21 05:29:39;;;;;;;22.85;9.07;;;11.10;99.90;;;;;;5069101;28;20074;-69
2022/10/21 05:32:05;;;;;;;23.67;9.55;;;11.10;99.90;;;;;;5070226;28;20500;-73
2022/10/21 05:34:30;;;;;;;24.42;9.63;;;11.10;99.90;;;;;;5069040;28;20132;-69
2022/10/21 05:36:56;;;;;;;26.25;9.77;;;11.00;99.90;;;;;;5070722;28;20037;-69
2022/10/21 05:39:22;;;;;;;25.00;9.18;;;11.00;99.90;;;;;;5067475;28;20101;-74
2022/10/21 05:41:47;;;;;;;26.00;9.43;;;11.00;99.90;;;;;;5063429;28;20074;-71
2022/10/21 05:44:13;;;;;;;26.52;10.70;;;11.00;99.90;;;;;;5070640;28;20040;-70
2022/10/21 05:46:39;;;;;;;23.02;9.43;;;11.00;99.90;;;;;;5055241;28;20063;-69
2022/10/21 05:49:05;;;;;;;23.23;9.13;;;10.90;99.90;;;;;;5048962;28;20482;-69
2022/10/21 05:51:31;;;;;;;29.63;9.57;;;11.00;99.90;;;;;;5048682;28;20049;-69
2022/10/21 05:53:57;;;;;;;25.77;9.55;;;10.90;99.90;;;;;;5048485;28;20394;-68
2022/10/21 05:56:22;;;;;;;24.27;9.18;;;10.90;99.90;;;;;;5050400;28;20080;-69
2022/10/21 05:58:48;;;;;;;25.02;9.65;;;10.90;99.90;;;;;;5069843;28;20871;-69
2022/10/21 06:01:14;;;;;;;26.48;9.77;;;10.90;99.90;;;;;;5069416;28;20056;-69
2022/10/21 06:03:40;;;;;;;31.95;10.80;;;10.90;99.90;;;;;;5069312;28;20375;-69
2022/10/21 06:06:07;;;;;;;31.23;9.35;;;10.90;99.90;;;;;;5070256;28;20174;-69
2022/10/21 06:08:37;;;;;;;28.10;10.18;;;10.90;99.90;;;;;;5067505;28;20055;-68
2022/10/21 06:11:05;;;;;;;28.75;10.52;;;10.90;99.90;;;;;;5068887;28;20470;-69
2022/10/21 06:13:31;;;;;;;29.17;9.90;;;10.90;99.90;;;;;;5069395;28;20502;-70
2022/10/21 06:15:58;;;;;;;28.10;10.60;;;10.90;99.90;;;;;;5070371;28;20083;-70
2022/10/21 06:18:24;;;;;;;28.80;10.65;;;10.90;99.90;;;;;;5069808;28;20140;-69
2022/10/21 06:20:50;;;;;;;27.48;10.85;;;10.90;99.90;;;;;;5068625;28;20041;-70
2022/10/21 06:23:16;;;;;;;25.60;9.88;;;10.90;99.90;;;;;;5068209;28;20048;-68
2022/10/21 06:25:43;;;;;;;26.77;10.27;;;10.90;99.90;;;;;;5069211;28;20044;-70
2022/10/21 06:28:08;;;;;;;30.90;11.07;;;10.90;99.90;;;;;;5069751;28;20553;-69
2022/10/21 06:30:34;;;;;;;26.65;10.85;;;10.90;99.90;;;;;;5069526;28;20123;-69
2022/10/21 06:33:00;;;;;;;25.65;11.00;;;10.90;99.90;;;;;;5069751;28;20090;-69
2022/10/21 06:35:26;;;;;;;33.55;10.50;;;10.90;99.90;;;;;;5069771;28;20075;-69
2022/10/21 06:37:51;;;;;;;28.67;10.43;;;10.90;99.90;;;;;;5067341;28;20156;-72
2022/10/21 06:40:17;;;;;;;29.77;10.05;;;10.90;99.90;;;;;;5067471;28;20051;-69
2022/10/21 06:42:43;;;;;;;22.02;9.50;;;10.90;99.90;;;;;;5069505;28;20525;-68
2022/10/21 06:45:09;;;;;;;24.45;10.20;;;10.90;99.90;;;;;;5068864;28;20087;-69
2022/10/21 06:47:34;;;;;;;;;;;10.90;99.90;;;;;;5072851;28;20046;-68
2022/10/21 06:50:02;;;;;;;24.77;9.70;;;11.00;99.90;;;;;;5073327;28;19921;-70
2022/10/21 06:52:30;;;;;;;27.60;10.70;;;11.00;99.90;;;;;;5072690;28;20049;-69
2022/10/21 06:54:55;;;;;;;32.38;10.60;;;11.00;99.90;;;;;;5072359;28;20060;-69
2022/10/21 06:57:21;;;;;;;23.10;10.43;;;11.10;99.90;;;;;;5073615;28;20044;-70
2022/10/21 06:59:47;;;;;;;26.83;10.32;;;11.10;99.90;;;;;;5072971;28;20084;-67
2022/10/21 07:02:12;;;;;;;26.50;9.93;;;11.10;99.90;;;;;;5073673;28;20048;-67
2022/10/21 07:04:38;;;;;;;31.63;11.30;;;11.20;99.90;;;;;;5072534;28;20088;-67
2022/10/21 07:07:04;;;;;;;32.75;10.43;;;11.30;99.90;;;;;;5057261;28;20085;-70
2022/10/21 07:09:30;;;;;;;26.90;10.45;;;11.40;99.90;;;;;;5058827;28;20051;-72
2022/10/21 07:11:55;;;;;;;25.38;10.20;;;11.50;99.90;;;;;;5072713;28;20052;-70
2022/10/21 07:14:21;;;;;;;33.83;10.43;;;11.60;99.90;;;;;;5073339;28;20489;-69
2022/10/21 07:16:47;;;;;;;25.77;9.82;;;11.60;99.90;;;;;;5087834;28;20053;-67
2022/10/21 07:19:13;;;;;;;25.83;10.32;;;11.70;99.90;;;;;;5071502;28;20059;-69
2022/10/21 07:21:39;;;;;;;26.45;10.48;;;11.70;99.90;;;;;;5072319;28;20040;-71
2022/10/21 07:24:05;;;;;;;28.73;10.82;;;11.80;99.90;;;;;;5070089;28;20049;-69
2022/10/21 07:26:33;;;;;;;;;;;11.80;99.90;;;;;;5071974;28;20055;-71
2022/10/21 07:28:59;;;;;;;22.25;9.30;;;11.90;99.90;;;;;;5072524;28;19931;-70
2022/10/21 07:31:27;;;;;;;26.73;9.50;;;11.90;99.90;;;;;;5072033;28;20060;-69
2022/10/21 07:33:53;;;;;;;29.95;10.45;;;12.00;99.90;;;;;;5071182;28;20047;-70
2022/10/21 07:36:24;;;;;;;27.98;10.00;;;12.00;99.90;;;;;;5067201;28;20048;-68
2022/10/21 07:38:52;;;;;;;27.27;9.82;;;12.10;99.90;;;;;;5069153;28;20044;-68
2022/10/21 07:41:27;;;;;;;19.83;9.10;;;12.10;99.90;;;;;;5071734;28;20052;-69
2022/10/21 07:43:53;;;;;;;21.58;9.35;;;12.20;99.90;;;;;;5070765;28;20041;-68
2022/10/21 07:46:21;;;;;;;19.85;9.25;;;12.30;99.90;;;;;;5065336;28;20532;-70
2022/10/21 07:48:47;;;;;;;25.42;9.57;;;12.30;99.90;;;;;;5064338;28;20047;-68
2022/10/21 07:51:15;;;;;;;25.38;10.13;;;12.40;99.90;;;;;;5070973;28;20044;-68
2022/10/21 07:53:41;;;;;;;22.05;9.20;;;12.50;99.90;;;;;;5068739;28;20501;-68
2022/10/21 07:56:10;;;;;;;20.45;8.73;;;12.60;99.90;;;;;;5070883;28;20032;-69
2022/10/21 07:58:35;;;;;;;18.88;8.82;;;12.60;99.90;;;;;;5068665;28;20052;-71
2022/10/21 08:01:03;;;;;;;25.05;9.13;;;12.70;99.90;;;;;;5070012;28;20052;-68
2022/10/21 08:03:29;;;;;;;22.02;10.25;;;12.80;99.90;;;;;;5069872;28;20051;-68
2022/10/21 08:05:55;;;;;;;17.67;8.43;;;12.90;99.90;;;;;;5068306;28;20044;-69
2022/10/21 08:08:21;;;;;;;23.98;9.77;;;13.10;99.90;;;;;;5063032;28;20049;-69
2022/10/21 08:10:47;;;;;;;;;;;13.20;99.90;;;;;;5063167;28;20445;-70
2022/10/21 08:13:14;;;;;;;19.10;8.90;;;13.30;99.90;;;;;;5069602;28;19924;-70
2022/10/21 08:15:43;;;;;;;20.83;9.10;;;13.40;99.90;;;;;;5070188;28;20055;-72
2022/10/21 08:18:09;;;;;;;18.90;9.05;;;13.40;99.90;;;;;;5052165;28;20041;-68
2022/10/21 08:20:39;;;;;;;19.67;8.93;;;13.50;99.90;;;;;;5068186;28;20551;-68
2022/10/21 08:23:05;;;;;;;16.67;7.68;;;13.60;99.90;;;;;;5067057;28;20047;-71
2022/10/21 08:25:31;;;;;;;;;;;13.70;99.90;;;;;;5069919;28;20509;-68
2022/10/21 08:27:56;;;;;;;16.52;7.68;;;13.80;99.90;;;;;;5068241;28;19928;-69
2022/10/21 08:30:22;;;;;;;19.48;7.80;;;13.80;99.90;;;;;;5066012;28;20045;-67
2022/10/21 08:32:47;;;;;;;14.25;7.43;;;13.80;99.90;;;;;;5064214;28;20138;-68
2022/10/21 08:35:13;;;;;;;16.05;7.47;;;13.90;99.90;;;;;;5070096;28;20045;-70
2022/10/21 08:37:39;;;;;;;21.95;8.65;;;14.00;99.90;;;;;;5069372;28;20063;-72
2022/10/21 08:40:06;;;;;;;17.50;8.27;;;14.00;99.90;;;;;;5069232;28;20056;-73
2022/10/21 08:42:31;;;;;;;23.30;8.98;;;14.10;99.90;;;;;;5056680;28;20139;-68
2022/10/21 08:45:06;;;;;;;17.92;7.25;;;14.10;99.90;;;;;;5053914;28;20183;-67
2022/10/21 08:47:44;;;;;;;19.00;8.20;;;14.20;99.90;;;;;;5059902;28;20047;-67
2022/10/21 08:50:23;;;;;;;18.00;7.90;;;14.20;99.90;;;;;;5052892;28;20045;-68
2022/10/21 08:52:58;;;;;;;17.85;7.97;;;14.30;99.90;;;;;;5049649;28;20048;-67
2022/10/21 08:55:41;;;;;;;21.50;7.68;;;14.30;99.90;;;;;;5050733;28;20132;-68
2022/10/21 08:58:20;;;;;;;17.90;7.13;;;14.30;99.90;;;;;;5070461;28;20040;-67
2022/10/21 09:00:50;;;;;;;17.15;8.18;;;14.30;99.90;;;;;;5097119;28;20112;-71
2022/10/21 09:03:22;;;;;;;18.60;7.97;;;14.30;99.90;;;;;;5067520;28;20089;-70
2022/10/21 09:06:08;;;;;;;15.85;7.25;;;14.40;99.90;;;;;;5068836;28;20074;-73
2022/10/21 09:08:59;;;;;;;15.02;6.68;;;14.40;99.90;;;;;;5062890;28;20080;-72
2022/10/21 09:11:43;;;;;;;15.80;6.60;;;14.40;99.90;;;;;;5060186;28;20102;-71
2022/10/21 09:14:35;;;;;;;15.10;7.43;;;14.40;99.90;;;;;;5027128;28;20064;-72
2022/10/21 09:17:20;;;;;;;20.65;7.43;;;14.50;99.90;;;;;;5025386;28;20048;-75
2022/10/21 09:20:08;;;;;;;17.38;7.40;;;14.50;99.90;;;;;;5029279;28;20050;-71
2022/10/21 09:22:40;;;;;;;15.25;7.63;;;14.60;99.90;;;;;;5015998;28;20049;-68
2022/10/21 09:25:26;;;;;;;15.95;6.85;;;14.80;99.90;;;;;;5027367;28;20102;-67
2022/10/21 09:27:54;;;;;;;17.00;7.40;;;14.90;99.90;;;;;;5029670;28;20376;-68
2022/10/21 09:30:21;;;;;;;14.00;6.70;;;15.00;99.90;;;;;;5062264;28;20525;-68
2022/10/21 09:32:48;;;;;;;14.60;6.32;;;15.10;99.90;;;;;;5029986;28;20120;-71
2022/10/21 09:35:38;;;;;;;14.75;6.95;;;15.20;99.90;;;;;;5029891;28;20064;-68
2022/10/21 09:38:14;;;;;;;14.82;6.07;;;15.30;99.90;;;;;;5022574;28;20045;-70
2022/10/21 09:40:39;;;;;;;12.30;6.03;;;15.30;99.90;;;;;;5010641;28;20103;-68
2022/10/21 09:43:15;;;;;;;13.30;6.53;;;15.40;99.90;;;;;;5011853;28;20561;-68
2022/10/21 09:45:44;;;;;;;13.60;6.47;;;15.40;99.90;;;;;;5064917;28;20518;-68
2022/10/21 09:48:18;;;;;;;14.00;7.22;;;15.50;99.90;;;;;;5031191;28;20555;-70
2022/10/21 09:51:24;;;;;;;15.02;6.15;;;15.50;99.90;;;;;;5016509;28;20041;-67
2022/10/21 09:53:54;;;;;;;14.25;6.82;;;15.50;99.90;;;;;;5027438;28;20449;-71
2022/10/21 09:56:51;;;;;;;16.30;6.03;;;15.50;99.90;;;;;;5030000;28;20050;-69
2022/10/21 09:59:20;;;;;;;14.68;6.20;;;15.60;99.90;;;;;;5030078;28;20045;-68
2022/10/21 10:01:47;;;;;;;15.73;6.30;;;15.60;99.90;;;;;;5040497;28;20061;-67
2022/10/21 10:04:20;;;;;;;15.30;6.05;;;15.60;99.90;;;;;;5009521;28;20045;-68
2022/10/21 10:06:46;;;;;;;14.45;6.20;;;15.60;99.90;;;;;;5010481;28;20541;-68
2022/10/21 10:09:28;;;;;;;11.52;6.50;;;15.60;99.90;;;;;;5007487;28;20073;-68
2022/10/21 10:12:11;;;;;;;12.85;6.18;;;15.70;99.90;;;;;;5032413;28;20475;-71
2022/10/21 10:14:41;;;;;;;12.05;6.55;;;15.70;99.90;;;;;;5058807;28;20048;-68
2022/10/21 10:17:30;;;;;;;20.80;7.07;;;15.80;99.90;;;;;;5049160;28;20052;-69
2022/10/21 10:20:12;;;;;;;13.57;6.20;;;15.80;99.90;;;;;;5058485;28;20113;-77
2022/10/21 10:22:44;;;;;;;14.25;6.38;;;15.80;99.90;;;;;;5056187;28;20049;-68
2022/10/21 10:25:13;;;;;;;12.88;5.80;;;15.80;99.90;;;;;;5064234;28;20790;-69
2022/10/21 10:27:55;;;;;;;13.52;5.95;;;15.90;99.90;;;;;;5072830;28;20098;-68
2022/10/21 10:30:23;;;;;;;15.35;6.68;;;15.90;99.90;;;;;;5055623;28;20044;-71
2022/10/21 10:32:51;;;;;;;11.00;5.60;;;15.90;99.90;;;;;;5058806;28;20048;-72
2022/10/21 10:35:32;;;;;;;18.27;6.78;;;16.00;99.90;;;;;;5051395;28;20041;-68
2022/10/21 10:38:01;;;;;;;12.98;6.30;;;16.00;99.90;;;;;;5069585;28;20040;-71
2022/10/21 10:40:37;;;;;;;13.80;6.10;;;16.00;99.90;;;;;;5069139;28;20068;-70
2022/10/21 10:43:19;;;;;;;12.63;6.00;;;16.00;99.90;;;;;;5071066;28;20477;-68
2022/10/21 10:46:03;;;;;;;15.50;6.70;;;15.90;99.90;;;;;;5069822;28;20083;-68
2022/10/21 10:48:47;;;;;;;14.57;6.00;;;16.00;99.90;;;;;;5066041;28;20051;-68
2022/10/21 10:51:33;;;;;;;15.80;6.47;;;16.00;99.90;;;;;;5082199;28;20099;-68
2022/10/21 10:54:22;;;;;;;17.90;6.18;;;16.00;99.90;;;;;;5068822;28;20040;-72
2022/10/21 10:56:55;;;;;;;17.67;6.38;;;16.00;99.90;;;;;;5059407;28;20101;-68
2022/10/21 10:59:44;;;;;;;12.30;6.05;;;16.00;99.90;;;;;;5071028;28;20071;-69
2022/10/21 11:02:10;;;;;;;13.05;6.43;;;16.00;99.90;;;;;;5069761;28;20040;-69
2022/10/21 11:04:58;;;;;;;16.55;6.93;;;16.10;99.90;;;;;;5068304;28;20044;-69
2022/10/21 11:07:36;;;;;;;14.70;5.95;;;16.10;99.90;;;;;;5070225;28;20082;-70
2022/10/21 11:10:16;;;;;;;15.20;6.18;;;16.20;99.90;;;;;;5065637;28;20048;-68
2022/10/21 11:12:41;;;;;;;11.25;5.65;;;16.20;99.90;;;;;;5070453;28;20406;-68
2022/10/21 11:15:13;;;;;;;14.82;6.85;;;16.30;99.90;;;;;;5065320;28;20059;-68
2022/10/21 11:17:42;;;;;;;16.10;7.40;;;16.40;99.90;;;;;;5052932;28;20056;-68
2022/10/21 11:20:11;;;;;;;16.38;5.35;;;16.40;99.90;;;;;;5071218;28;20051;-69
2022/10/21 11:23:11;;;;;;;12.18;6.05;;;16.50;99.90;;;;;;5071446;28;20048;-69
2022/10/21 11:25:46;;;;;;;14.20;5.05;;;16.50;99.90;;;;;;5071619;28;20044;-68
2022/10/21 11:28:17;;;;;;;12.07;5.70;;;16.60;99.90;;;;;;5069248;28;20122;-69
2022/10/21 11:31:21;;;;;;;14.75;6.05;;;16.60;99.90;;;;;;5066798;28;20535;-69
2022/10/21 11:34:19;;;;;;;10.88;4.68;;;16.60;99.90;;;;;;5045864;28;20045;-68
2022/10/21 11:37:16;;;;;;;10.02;4.57;;;16.60;99.90;;;;;;5028817;28;20084;-69
2022/10/21 11:40:05;;;;;;;11.27;5.03;;;16.70;99.90;;;;;;5068346;28;20127;-68
2022/10/21 11:42:36;;;;;;;10.02;4.45;;;16.70;99.90;;;;;;5059228;28;20433;-69
2022/10/21 11:45:40;;;;;;;10.63;4.03;;;16.70;99.90;;;;;;5069293;28;20045;-74
2022/10/21 11:48:18;;;;;;;10.35;4.18;;;16.70;99.90;;;;;;5065233;28;20516;-69
2022/10/21 11:50:49;;;;;;;7.97;4.35;;;16.80;99.90;;;;;;5065574;28;20123;-70
2022/10/21 11:53:29;;;;;;;9.77;3.72;;;16.70;99.90;;;;;;5066630;28;20053;-71
2022/10/21 11:56:13;;;;;;;10.57;5.05;;;16.70;99.90;;;;;;5071791;28;20047;-69
2022/10/21 11:58:57;;;;;;;10.52;4.18;;;16.70;99.90;;;;;;5062058;28;20064;-69
2022/10/21 12:01:54;;;;;;;10.60;4.10;;;16.70;99.90;;;;;;5051552;28;20037;-69
2022/10/21 12:04:20;;;;;;;10.50;4.50;;;16.70;99.90;;;;;;5050982;28;20720;-68
2022/10/21 12:07:04;;;;;;;8.85;4.13;;;16.70;99.90;;;;;;5052238;28;20312;-69
2022/10/21 12:09:38;;;;;;;9.32;4.03;;;16.70;99.90;;;;;;5049866;28;20053;-69
2022/10/21 12:12:14;;;;;;;11.10;4.45;;;16.70;99.90;;;;;;5055712;28;20048;-72
2022/10/21 12:14:45;;;;;;;12.33;4.30;;;16.60;99.90;;;;;;5051871;28;20075;-69
2022/10/21 12:17:16;;;;;;;10.30;3.88;;;16.70;99.90;;;;;;5059857;28;20414;-67
2022/10/21 12:19:46;;;;;;;10.15;4.10;;;16.70;99.90;;;;;;5056018;28;20052;-69
2022/10/21 12:22:13;;;;;;;13.27;3.78;;;16.80;99.90;;;;;;5050408;28;20825;-68
2022/10/21 12:24:43;;;;;;;;;;;16.90;99.90;;;;;;5050882;28;20045;-68
2022/10/21 12:27:36;;;;;;;11.15;3.80;;;17.00;99.90;;;;;;5051395;28;19974;-70
2022/10/21 12:30:15;;;;;;;7.30;3.58;;;17.00;99.90;;;;;;5064786;28;20049;-72
2022/10/21 12:33:11;;;;;;;9.75;3.97;;;17.00;99.90;;;;;;5051510;28;20083;-68
2022/10/21 12:35:45;;;;;;;9.93;3.83;;;17.00;99.90;;;;;;5051411;28;20053;-69
2022/10/21 12:38:42;;;;;;;10.50;4.40;;;17.00;99.90;;;;;;5056996;28;20048;-71
2022/10/21 12:41:23;;;;;;;11.93;3.83;;;17.00;99.90;;;;;;5065215;28;20044;-67
2022/10/21 12:44:36;;;;;;;9.13;4.03;;;17.00;99.90;;;;;;5070505;28;20043;-68
2022/10/21 12:47:20;;;;;;;7.93;3.88;;;17.00;99.90;;;;;;5049032;28;20065;-72
2022/10/21 12:49:45;;;;;;;13.20;4.68;;;16.90;99.90;;;;;;5050926;28;20382;-70
2022/10/21 12:52:19;;;;;;;9.32;4.00;;;16.90;99.90;;;;;;5049945;28;20083;-72
2022/10/21 12:55:01;;;;;;;10.40;4.25;;;16.90;99.90;;;;;;5050208;28;20053;-68
2022/10/21 12:57:28;;;;;;;9.27;3.83;;;16.80;99.90;;;;;;5050687;28;20486;-70